createdAt,value
2022-09-02T00:00:32.304Z,54.58
2022-09-02T00:02:04.068Z,54.65
2022-09-02T00:03:35.854Z,54.76
2022-09-02T00:05:07.855Z,54.70
2022-09-02T00:06:40.907Z,54.67
2022-09-02T00:08:12.838Z,54.81
2022-09-02T00:09:44.441Z,54.80
2022-09-02T00:11:17.028Z,54.81
2022-09-02T00:12:49.386Z,54.81
2022-09-02T00:14:25.685Z,54.85
2022-09-02T00:15:57.442Z,54.88
2022-09-02T00:17:29.324Z,54.93
2022-09-02T00:19:01.747Z,55.20
2022-09-02T00:20:33.256Z,55.30
2022-09-02T00:22:04.966Z,55.33
2022-09-02T00:23:37.015Z,55.42
2022-09-02T00:25:09.864Z,55.34
2022-09-02T00:26:41.630Z,55.41
2022-09-02T00:28:15.026Z,55.35
2022-09-02T00:29:47.167Z,55.26
2022-09-02T00:31:18.856Z,55.34
2022-09-02T00:32:50.762Z,55.42
2022-09-02T00:34:22.607Z,55.50
2022-09-02T00:35:54.406Z,55.43
2022-09-02T00:37:26.909Z,55.49
2022-09-02T00:38:58.910Z,55.72
2022-09-02T00:40:30.734Z,55.89
2022-09-02T00:42:03.212Z,56.12
2022-09-02T00:43:54.156Z,56.29
2022-09-02T00:45:25.958Z,56.37
2022-09-02T00:46:58.093Z,56.38
2022-09-02T00:48:29.845Z,56.33
2022-09-02T00:50:01.479Z,56.19
2022-09-02T00:51:37.469Z,56.29
2022-09-02T00:53:09.913Z,56.20
2022-09-02T00:54:44.160Z,56.43
2022-09-02T00:56:19.014Z,56.42
2022-09-02T00:58:01.398Z,56.38
2022-09-02T00:59:41.160Z,56.41
2022-09-02T01:01:12.953Z,56.60
2022-09-02T01:02:46.319Z,56.73
2022-09-02T01:04:17.879Z,56.85
2022-09-02T01:05:49.853Z,56.85
2022-09-02T01:07:22.728Z,56.98
2022-09-02T01:08:57.318Z,57.09
2022-09-02T01:10:30.889Z,57.15
2022-09-02T01:12:06.267Z,56.96
2022-09-02T01:13:40.982Z,57.03
2022-09-02T01:15:15.945Z,56.95
2022-09-02T01:16:49.575Z,56.97
2022-09-02T01:18:24.204Z,57.02
2022-09-02T01:19:57.540Z,57.00
2022-09-02T01:21:29.409Z,57.14
2022-09-02T01:23:02.495Z,57.15
2022-09-02T01:24:34.926Z,57.27
2022-09-02T01:26:08.078Z,57.23
2022-09-02T01:27:40.086Z,57.30
2022-09-02T01:29:11.705Z,57.37
2022-09-02T01:30:44.892Z,57.23
2022-09-02T01:32:16.534Z,57.26
2022-09-02T01:33:48.187Z,57.22
2022-09-02T01:35:20.754Z,57.28
2022-09-02T01:36:52.354Z,57.11
2022-09-02T01:38:23.984Z,57.12
2022-09-02T01:39:57.749Z,57.29
2022-09-02T01:41:29.297Z,57.30
2022-09-02T01:43:02.319Z,57.45
2022-09-02T01:44:35.050Z,57.60
2022-09-02T01:46:06.781Z,57.77
2022-09-02T01:47:38.380Z,57.85
2022-09-02T01:49:09.963Z,58.08
2022-09-02T01:50:46.954Z,58.14
2022-09-02T01:52:19.048Z,58.32
2022-09-02T01:53:50.769Z,58.38
2022-09-02T01:55:22.938Z,58.50
2022-09-02T01:56:54.847Z,58.64
2022-09-02T01:58:27.750Z,58.81
2022-09-02T02:00:06.141Z,58.69
2022-09-02T02:01:38.814Z,58.70
2022-09-02T02:03:13.601Z,59.02
2022-09-02T02:04:45.671Z,59.01
2022-09-02T02:06:17.908Z,58.93
2022-09-02T02:07:49.516Z,58.84
2022-09-02T02:09:21.158Z,58.90
2022-09-02T02:10:52.759Z,58.92
2022-09-02T02:12:24.305Z,58.95
2022-09-02T02:13:55.955Z,58.88
2022-09-02T02:17:04.182Z,58.95
2022-09-02T02:18:38.821Z,58.94
2022-09-02T02:20:15.250Z,59.02
2022-09-02T02:21:46.859Z,59.04
2022-09-02T02:23:18.566Z,59.05
2022-09-02T02:24:50.594Z,58.99
2022-09-02T02:26:22.249Z,59.10
2022-09-02T02:27:54.258Z,59.29
2022-09-02T02:29:27.564Z,59.21
2022-09-02T02:31:02.549Z,58.99
2022-09-02T02:32:34.189Z,58.93
2022-09-02T02:34:05.930Z,59.07
2022-09-02T02:35:40.437Z,58.79
2022-09-02T02:37:13.160Z,59.04
2022-09-02T02:38:46.405Z,59.13
2022-09-02T02:40:21.464Z,59.03
2022-09-02T02:41:58.905Z,59.21
2022-09-02T02:43:30.532Z,59.08
2022-09-02T02:45:02.130Z,59.39
2022-09-02T02:46:35.894Z,59.32
2022-09-02T02:48:07.518Z,59.45
2022-09-02T02:49:39.559Z,59.55
2022-09-02T02:51:11.249Z,59.67
2022-09-02T02:52:43.084Z,59.54
2022-09-02T02:54:14.765Z,59.88
2022-09-02T02:55:49.795Z,59.58
2022-09-02T02:57:21.712Z,59.33
2022-09-02T02:58:53.709Z,59.17
2022-09-02T03:00:26.335Z,59.20
2022-09-02T03:01:57.955Z,59.15
2022-09-02T03:03:30.053Z,59.30
2022-09-02T03:05:01.813Z,59.17
2022-09-02T03:06:33.492Z,59.47
2022-09-02T03:08:05.697Z,59.50
2022-09-02T03:09:37.816Z,59.48
2022-09-02T03:11:09.532Z,59.60
2022-09-02T03:12:41.245Z,59.77
2022-09-02T03:14:12.829Z,59.50
2022-09-02T03:15:44.718Z,59.65
2022-09-02T03:17:16.824Z,59.91
2022-09-02T03:18:51.817Z,59.83
2022-09-02T03:20:23.629Z,59.95
2022-09-02T03:21:55.291Z,59.92
2022-09-02T03:23:39.023Z,59.98
2022-09-02T03:25:11.344Z,60.07
2022-09-02T03:26:43.135Z,60.17
2022-09-02T03:28:14.820Z,60.03
2022-09-02T03:29:46.405Z,60.14
2022-09-02T03:31:19.578Z,60.01
2022-09-02T03:32:54.220Z,59.92
2022-09-02T03:34:25.732Z,59.81
2022-09-02T03:35:57.353Z,59.91
2022-09-02T03:37:29.084Z,59.73
2022-09-02T03:39:00.905Z,59.58
2022-09-02T03:40:32.632Z,59.56
2022-09-02T03:42:05.638Z,59.60
2022-09-02T03:43:37.428Z,59.56
2022-09-02T03:45:09.482Z,59.54
2022-09-02T03:46:41.057Z,59.56
2022-09-02T03:48:13.400Z,59.44
2022-09-02T03:49:44.905Z,59.67
2022-09-02T03:51:16.576Z,59.41
2022-09-02T03:52:48.571Z,59.48
2022-09-02T03:54:20.391Z,59.50
2022-09-02T03:55:52.053Z,59.53
2022-09-02T03:57:25.974Z,59.60
2022-09-02T03:58:57.546Z,59.46
2022-09-02T04:00:32.160Z,59.71
2022-09-02T04:02:03.902Z,59.57
2022-09-02T04:03:35.576Z,59.62
2022-09-02T04:05:10.333Z,59.55
2022-09-02T04:06:47.617Z,59.67
2022-09-02T04:08:19.390Z,59.66
2022-09-02T04:09:51.217Z,59.52
2022-09-02T04:11:23.294Z,59.72
2022-09-02T04:12:54.966Z,59.67
2022-09-02T04:14:27.696Z,59.50
2022-09-02T04:16:01.824Z,59.68
2022-09-02T04:17:35.727Z,59.78
2022-09-02T04:19:08.788Z,59.81
2022-09-02T04:20:40.819Z,60.01
2022-09-02T04:22:12.388Z,59.96
2022-09-02T04:23:44.455Z,59.92
2022-09-02T04:25:16.082Z,60.16
2022-09-02T04:26:47.783Z,60.05
2022-09-02T04:28:19.364Z,60.36
2022-09-02T04:29:50.999Z,60.52
2022-09-02T04:31:23.189Z,60.51
2022-09-02T04:32:54.848Z,60.50
2022-09-02T04:34:26.489Z,60.49
2022-09-02T04:35:58.229Z,60.31
2022-09-02T04:37:30.177Z,60.52
2022-09-02T04:39:02.031Z,60.51
2022-09-02T04:40:33.740Z,60.57
2022-09-02T04:42:05.775Z,60.55
2022-09-02T04:43:37.367Z,60.19
2022-09-02T04:45:09.352Z,60.67
2022-09-02T04:46:40.992Z,60.46
2022-09-02T04:48:12.829Z,60.32
2022-09-02T04:49:44.555Z,60.47
2022-09-02T04:51:17.134Z,60.39
2022-09-02T04:52:48.781Z,60.30
2022-09-02T04:54:20.530Z,60.38
2022-09-02T04:55:57.376Z,60.65
2022-09-02T04:57:29.653Z,60.36
2022-09-02T04:59:01.526Z,60.60
2022-09-02T05:00:33.363Z,60.36
2022-09-02T05:02:05.382Z,60.38
2022-09-02T05:03:37.344Z,60.44
2022-09-02T05:05:09.139Z,60.41
2022-09-02T05:06:44.367Z,60.18
2022-09-02T05:08:22.644Z,60.26
2022-09-02T05:09:58.248Z,60.31
2022-09-02T05:11:30.328Z,60.03
2022-09-02T05:13:01.944Z,60.05
2022-09-02T05:14:33.683Z,59.84
2022-09-02T05:16:05.405Z,60.07
2022-09-02T05:17:37.173Z,59.84
2022-09-02T05:19:10.772Z,60.06
2022-09-02T05:20:45.340Z,60.09
2022-09-02T05:22:17.147Z,60.22
2022-09-02T05:23:49.028Z,60.05
2022-09-02T05:25:20.963Z,60.31
2022-09-02T05:26:52.790Z,60.25
2022-09-02T05:28:25.162Z,60.37
2022-09-02T05:29:57.078Z,60.41
2022-09-02T05:31:29.195Z,60.40
2022-09-02T05:33:00.874Z,60.51
2022-09-02T05:34:33.849Z,60.36
2022-09-02T05:36:05.878Z,60.33
2022-09-02T05:37:37.581Z,60.07
2022-09-02T05:39:09.615Z,60.40
2022-09-02T05:40:41.175Z,60.49
2022-09-02T05:42:12.758Z,60.66
2022-09-02T05:43:45.112Z,60.74
2022-09-02T05:45:16.930Z,60.76
2022-09-02T05:46:49.159Z,60.82
2022-09-02T05:48:39.496Z,60.94
2022-09-02T05:50:14.290Z,61.12
2022-09-02T05:51:47.633Z,61.07
2022-09-02T05:53:19.289Z,61.03
2022-09-02T05:54:51.040Z,60.85
2022-09-02T05:56:22.865Z,60.97
2022-09-02T05:57:54.485Z,60.97
2022-09-02T05:59:27.274Z,61.08
2022-09-02T06:00:59.243Z,61.08
2022-09-02T06:02:31.108Z,61.04
2022-09-02T06:04:03.321Z,61.08
2022-09-02T06:05:36.058Z,61.06
2022-09-02T06:07:07.732Z,61.05
2022-09-02T06:08:41.499Z,60.94
2022-09-02T06:10:13.578Z,60.98
2022-09-02T06:11:46.206Z,60.94
2022-09-02T06:21:22.000Z,61.12
2022-09-02T06:23:12.181Z,61.18
2022-09-02T06:24:43.803Z,61.09
2022-09-02T06:26:15.623Z,61.16
2022-09-02T06:27:47.183Z,61.08
2022-09-02T06:29:18.869Z,61.03
2022-09-02T06:30:50.718Z,61.08
2022-09-02T06:32:22.348Z,60.95
2022-09-02T06:33:54.498Z,61.07
2022-09-02T06:35:26.084Z,61.25
2022-09-02T06:36:57.958Z,61.18
2022-09-02T06:38:30.076Z,61.07
2022-09-02T06:40:01.954Z,61.15
2022-09-02T06:41:33.925Z,61.21
2022-09-02T06:43:05.696Z,61.27
2022-09-02T06:44:38.241Z,61.29
2022-09-02T06:46:14.040Z,61.17
2022-09-02T06:47:46.195Z,61.19
2022-09-02T06:49:17.830Z,61.08
2022-09-02T06:50:49.491Z,60.94
2022-09-02T06:52:21.061Z,60.99
2022-09-02T06:53:52.838Z,60.98
2022-09-02T06:55:24.853Z,60.93
2022-09-02T06:56:56.583Z,60.85
2022-09-02T06:58:28.223Z,60.93
2022-09-02T07:00:01.940Z,60.86
2022-09-02T07:01:34.485Z,60.78
2022-09-02T07:03:24.922Z,60.88
2022-09-02T07:05:15.388Z,60.87
2022-09-02T07:06:48.972Z,60.89
2022-09-02T07:08:21.897Z,60.79
2022-09-02T07:09:53.813Z,60.62
2022-09-02T07:11:26.010Z,60.71
2022-09-02T07:12:57.724Z,60.62
2022-09-02T07:14:29.585Z,60.48
2022-09-02T07:16:01.434Z,60.50
2022-09-02T07:17:33.053Z,60.43
2022-09-02T07:19:05.652Z,60.50
2022-09-02T07:20:40.167Z,60.31
2022-09-02T07:22:11.755Z,60.40
2022-09-02T07:23:43.504Z,60.10
2022-09-02T07:25:16.655Z,60.01
2022-09-02T07:26:48.447Z,59.92
2022-09-02T07:28:22.131Z,59.97
2022-09-02T07:29:54.763Z,59.80
2022-09-02T07:31:27.721Z,59.87
2022-09-02T07:32:59.867Z,59.87
2022-09-02T07:34:31.543Z,59.68
2022-09-02T07:36:06.602Z,59.72
2022-09-02T07:37:43.858Z,59.80
2022-09-02T07:39:15.790Z,59.86
2022-09-02T07:40:49.113Z,59.80
2022-09-02T07:42:20.877Z,59.79
2022-09-02T07:43:54.366Z,59.83
2022-09-02T07:45:26.928Z,59.63
2022-09-02T07:46:58.660Z,59.56
2022-09-02T07:48:30.411Z,59.54
2022-09-02T07:50:20.268Z,59.45
2022-09-02T07:51:52.928Z,59.66
2022-09-02T07:53:25.268Z,59.44
2022-09-02T07:54:56.946Z,59.23
2022-09-02T07:56:28.707Z,59.54
2022-09-02T07:58:00.302Z,59.67
2022-09-02T07:59:32.105Z,59.65
2022-09-02T08:01:03.903Z,59.66
2022-09-02T08:02:35.752Z,59.64
2022-09-02T08:04:07.452Z,59.62
2022-09-02T08:05:39.364Z,59.63
2022-09-02T08:07:11.207Z,59.55
2022-09-02T08:08:42.945Z,59.17
2022-09-02T08:10:17.348Z,59.33
2022-09-02T08:11:50.210Z,59.14
2022-09-02T08:13:22.063Z,58.79
2022-09-02T08:14:58.980Z,58.71
2022-09-02T08:16:30.864Z,58.53
2022-09-02T08:18:02.664Z,58.68
2022-09-02T08:19:34.497Z,58.48
2022-09-02T08:21:06.268Z,58.75
2022-09-02T08:22:38.044Z,58.80
2022-09-02T08:24:10.339Z,58.85
2022-09-02T08:25:42.619Z,58.53
2022-09-02T08:27:14.243Z,58.41
2022-09-02T08:28:46.001Z,58.47
2022-09-02T08:30:17.784Z,58.37
2022-09-02T08:31:52.087Z,58.33
2022-09-02T08:33:25.702Z,58.10
2022-09-02T08:34:57.387Z,58.09
2022-09-02T08:36:31.810Z,58.10
2022-09-02T08:38:03.404Z,58.01
2022-09-02T08:39:36.687Z,58.27
2022-09-02T08:41:12.207Z,58.22
2022-09-02T08:42:45.412Z,58.08
2022-09-02T08:44:20.890Z,58.41
2022-09-02T08:45:54.478Z,58.32
2022-09-02T08:47:27.177Z,58.21
2022-09-02T08:49:08.448Z,58.13
2022-09-02T08:50:40.489Z,58.14
2022-09-02T08:52:17.645Z,58.00
2022-09-02T08:53:54.617Z,58.40
2022-09-02T08:55:30.025Z,58.25
2022-09-02T08:57:01.708Z,58.35
2022-09-02T08:58:34.143Z,58.45
2022-09-02T09:00:07.426Z,58.42
2022-09-02T09:01:49.844Z,58.46
2022-09-02T09:03:40.206Z,58.47
2022-09-02T09:05:14.911Z,58.61
2022-09-02T09:06:49.539Z,58.33
2022-09-02T09:08:42.218Z,58.46
2022-09-02T09:10:25.751Z,58.36
2022-09-02T09:11:57.661Z,58.20
2022-09-02T09:13:29.330Z,58.49
2022-09-02T09:15:16.770Z,58.28
2022-09-02T09:16:59.537Z,57.98
2022-09-02T09:18:41.241Z,57.69
2022-09-02T09:20:17.805Z,57.88
2022-09-02T09:21:49.659Z,58.18
2022-09-02T09:23:22.211Z,58.15
2022-09-02T09:24:54.452Z,58.38
2022-09-02T09:26:34.268Z,58.34
2022-09-02T09:36:10.607Z,57.25
2022-09-02T09:37:46.559Z,57.38
2022-09-02T09:39:29.863Z,57.19
2022-09-02T09:41:11.521Z,56.88
2022-09-02T09:42:47.822Z,57.02
2022-09-02T09:44:45.471Z,56.56
2022-09-02T09:46:21.267Z,56.35
2022-09-02T09:48:31.973Z,55.88
2022-09-02T09:52:51.381Z,55.63
2022-09-02T09:57:27.077Z,55.08
2022-09-02T09:59:09.167Z,54.96
2022-09-02T10:00:41.789Z,54.99
2022-09-02T10:02:40.177Z,54.79
2022-09-02T10:04:45.994Z,54.78
2022-09-02T10:06:19.091Z,54.91
2022-09-02T10:08:00.981Z,54.63
2022-09-02T10:09:34.623Z,54.53
2022-09-02T10:11:08.759Z,54.00
2022-09-02T10:12:41.123Z,53.73
2022-09-02T10:17:08.924Z,53.87
2022-09-02T10:24:38.565Z,52.99
2022-09-02T10:26:12.164Z,52.38
2022-09-02T10:27:48.150Z,52.33
2022-09-02T10:29:26.177Z,52.24
2022-09-02T10:31:04.598Z,52.04
2022-09-02T10:32:40.458Z,51.80
2022-09-02T10:34:24.399Z,52.00
2022-09-02T10:35:56.612Z,51.56
2022-09-02T10:37:48.299Z,51.47
2022-09-02T10:39:40.663Z,51.34
2022-09-02T10:41:50.975Z,51.43
2022-09-02T10:43:41.675Z,51.63
2022-09-02T10:45:13.783Z,51.53
2022-09-02T10:47:04.735Z,51.75
2022-09-02T10:48:57.294Z,51.54
2022-09-02T10:50:32.355Z,51.27
2022-09-02T10:52:08.325Z,51.19
2022-09-02T10:53:45.831Z,50.46
2022-09-02T10:55:30.072Z,50.58
2022-09-02T10:57:02.251Z,50.13
2022-09-02T11:00:51.045Z,50.15
2022-09-02T11:08:04.967Z,49.57
2022-09-02T11:09:41.683Z,50.02
2022-09-02T11:11:15.126Z,49.88
2022-09-02T11:13:03.693Z,49.70
2022-09-02T11:14:53.811Z,49.42
2022-09-02T11:16:26.278Z,49.39
2022-09-02T11:18:05.506Z,49.48
2022-09-02T11:19:41.835Z,49.51
2022-09-02T11:21:13.596Z,49.26
2022-09-02T11:23:03.880Z,49.08
2022-09-02T11:32:21.878Z,49.13
2022-09-02T11:35:38.602Z,48.65
2022-09-02T11:37:13.944Z,48.17
2022-09-02T11:38:47.374Z,48.42
2022-09-02T11:40:34.330Z,48.14
2022-09-02T11:42:25.460Z,47.97
2022-09-02T11:44:00.659Z,47.99
2022-09-02T11:45:41.273Z,47.48
2022-09-02T11:47:15.634Z,47.18
2022-09-02T11:48:51.224Z,46.91
2022-09-02T11:50:26.642Z,47.28
2022-09-02T11:52:02.604Z,47.41
2022-09-02T11:53:38.780Z,47.15
2022-09-02T11:55:12.273Z,47.04
2022-09-02T11:56:44.949Z,46.59
2022-09-02T11:58:35.602Z,46.40
2022-09-02T12:00:08.288Z,46.30
2022-09-02T12:01:50.462Z,46.72
2022-09-02T12:03:39.163Z,46.31
2022-09-02T12:05:30.254Z,46.53
2022-09-02T12:07:09.927Z,47.02
2022-09-02T12:08:43.149Z,47.14
2022-09-02T12:10:35.230Z,46.72
2022-09-02T12:12:07.384Z,46.80
2022-09-02T12:13:43.759Z,46.91
2022-09-02T12:15:17.423Z,46.87
2022-09-02T12:17:14.911Z,46.92
2022-09-02T12:19:00.727Z,46.58
2022-09-02T12:23:17.439Z,46.62
2022-09-02T12:23:54.792Z,47.06
2022-09-02T12:29:48.376Z,46.72
2022-09-02T12:31:43.226Z,46.82
2022-09-02T12:33:16.289Z,46.88
2022-09-02T12:34:52.495Z,47.16
2022-09-02T12:36:42.984Z,46.82
2022-09-02T12:38:16.627Z,47.01
2022-09-02T12:39:50.779Z,46.70
2022-09-02T12:41:23.670Z,46.65
2022-09-02T12:42:55.811Z,46.90
2022-09-02T12:44:46.119Z,46.99
2022-09-02T12:46:33.107Z,46.98
2022-09-02T12:48:10.484Z,47.06
2022-09-02T12:49:45.302Z,47.16
2022-09-02T12:51:35.670Z,47.08
2022-09-02T12:53:29.998Z,47.14
2022-09-02T12:55:05.062Z,47.13
2022-09-02T12:56:36.668Z,47.48
2022-09-02T12:58:11.953Z,47.51
2022-09-02T12:59:44.499Z,47.48
2022-09-02T13:01:31.002Z,47.71
2022-09-02T13:03:04.444Z,47.92
2022-09-02T13:04:39.379Z,47.97
2022-09-02T13:06:46.556Z,48.13
2022-09-02T13:08:36.989Z,48.49
2022-09-02T13:10:09.492Z,48.79
2022-09-02T13:11:41.200Z,49.08
2022-09-02T13:13:31.569Z,49.26
2022-09-02T13:15:12.468Z,49.12
2022-09-02T13:16:44.286Z,49.29
2022-09-02T13:18:36.773Z,49.49
2022-09-02T13:20:22.658Z,49.46
2022-09-02T13:21:54.680Z,49.20
2022-09-02T13:25:07.760Z,49.66
2022-09-02T13:26:50.407Z,49.75
2022-09-02T13:28:25.507Z,49.73
2022-09-02T13:30:03.383Z,49.70
2022-09-02T13:31:35.170Z,49.75
2022-09-02T13:33:07.445Z,49.61
2022-09-02T13:34:42.532Z,49.31
2022-09-02T13:36:20.770Z,49.25
2022-09-02T13:37:59.866Z,49.39
2022-09-02T13:39:31.618Z,49.39
2022-09-02T13:41:03.279Z,49.00
2022-09-02T13:42:35.312Z,48.98
2022-09-02T13:44:09.996Z,49.09
2022-09-02T13:45:41.894Z,49.28
2022-09-02T13:47:17.021Z,49.13
2022-09-02T13:48:49.335Z,48.98
2022-09-02T13:50:22.220Z,48.78
2022-09-02T13:51:54.864Z,48.80
2022-09-02T13:53:59.086Z,48.81
2022-09-02T13:55:23.925Z,48.87
2022-09-02T13:56:56.090Z,48.75
2022-09-02T13:58:30.997Z,48.81
2022-09-02T14:00:02.906Z,48.79
2022-09-02T14:01:36.216Z,48.71
2022-09-02T14:03:09.504Z,48.59
2022-09-02T14:04:41.358Z,48.68
2022-09-02T14:06:12.987Z,48.90
2022-09-02T14:07:45.300Z,48.76
2022-09-02T14:09:24.716Z,48.75
2022-09-02T14:10:56.798Z,48.73
2022-09-02T14:12:28.501Z,48.77
2022-09-02T14:14:00.325Z,48.77
2022-09-02T14:15:32.347Z,48.61
2022-09-02T14:17:23.723Z,48.49
2022-09-02T14:19:08.727Z,48.37
2022-09-02T14:20:54.180Z,48.48
2022-09-02T14:22:28.883Z,48.64
2022-09-02T14:24:00.636Z,48.84
2022-09-02T14:25:38.496Z,48.61
2022-09-02T14:27:15.839Z,48.37
2022-09-02T14:28:50.663Z,48.28
2022-09-02T14:30:26.566Z,48.39
2022-09-02T14:32:07.082Z,48.08
2022-09-02T14:33:42.801Z,48.03
2022-09-02T14:35:17.085Z,47.99
2022-09-02T14:36:48.671Z,48.19
2022-09-02T14:38:23.551Z,47.93
2022-09-02T14:40:11.723Z,47.94
2022-09-02T14:41:50.634Z,48.18
2022-09-02T14:43:23.062Z,48.22
2022-09-02T14:44:54.687Z,48.24
2022-09-02T14:46:30.145Z,48.04
2022-09-02T14:48:19.881Z,48.19
2022-09-02T14:49:52.278Z,48.02
2022-09-02T14:51:24.037Z,47.93
2022-09-02T14:52:58.460Z,47.94
2022-09-02T14:54:49.563Z,47.93
2022-09-02T14:56:41.086Z,47.94
2022-09-02T14:58:12.713Z,47.87
2022-09-02T14:59:44.335Z,47.62
2022-09-02T15:01:16.102Z,47.79
2022-09-02T15:02:47.948Z,47.77
2022-09-02T15:04:19.757Z,47.56
2022-09-02T15:05:52.503Z,47.66
2022-09-02T15:07:24.266Z,47.63
2022-09-02T15:08:56.034Z,47.83
2022-09-02T15:10:28.154Z,47.85
2022-09-02T15:12:02.836Z,47.83
2022-09-02T15:13:35.005Z,47.93
2022-09-02T15:15:07.118Z,48.08
2022-09-02T15:16:39.399Z,47.92
2022-09-02T15:18:11.808Z,47.82
2022-09-02T15:19:43.419Z,48.07
2022-09-02T15:21:15.456Z,47.88
2022-09-02T15:22:47.220Z,48.01
2022-09-02T15:24:18.971Z,47.88
2022-09-02T15:25:50.635Z,48.09
2022-09-02T15:27:22.462Z,48.21
2022-09-02T15:28:56.120Z,48.23
2022-09-02T15:30:27.771Z,47.96
2022-09-02T15:32:00.376Z,47.97
2022-09-02T15:33:32.329Z,48.14
2022-09-02T15:35:04.578Z,48.22
2022-09-02T15:36:36.215Z,48.19
2022-09-02T15:38:09.247Z,48.31
2022-09-02T15:39:41.493Z,48.16
2022-09-02T15:41:13.967Z,48.44
2022-09-02T15:42:45.656Z,48.37
2022-09-02T15:44:17.794Z,48.41
2022-09-02T15:45:49.956Z,48.36
2022-09-02T15:47:21.712Z,48.20
2022-09-02T15:48:54.761Z,48.41
2022-09-02T15:50:30.398Z,48.57
2022-09-02T15:52:03.191Z,48.35
2022-09-02T15:53:34.843Z,48.32
2022-09-02T15:55:06.983Z,48.47
2022-09-02T15:56:40.555Z,48.55
2022-09-02T15:58:12.582Z,48.42
2022-09-02T15:59:44.236Z,48.48
2022-09-02T16:01:16.790Z,48.68
2022-09-02T16:02:48.679Z,48.57
2022-09-02T16:04:20.431Z,48.67
2022-09-02T16:05:52.058Z,48.93
2022-09-02T16:07:24.477Z,48.94
2022-09-02T16:08:56.189Z,49.09
2022-09-02T16:10:28.564Z,49.05
2022-09-02T16:12:00.216Z,49.31
2022-09-02T16:13:32.006Z,49.25
2022-09-02T16:15:03.914Z,49.71
2022-09-02T16:16:38.813Z,49.75
2022-09-02T16:18:10.396Z,49.62
2022-09-02T16:19:42.043Z,49.68
2022-09-02T16:21:14.456Z,49.87
2022-09-02T16:22:47.517Z,49.81
2022-09-02T16:24:21.541Z,49.80
2022-09-02T16:26:09.151Z,49.95
2022-09-02T16:27:53.255Z,49.96
2022-09-02T16:29:28.349Z,49.89
2022-09-02T16:31:00.241Z,50.15
2022-09-02T16:32:32.264Z,50.47
2022-09-02T16:34:04.058Z,50.71
2022-09-02T16:35:36.598Z,50.48
2022-09-02T16:37:08.238Z,50.42
2022-09-02T16:38:39.857Z,50.33
2022-09-02T16:40:11.916Z,50.42
2022-09-02T16:41:44.630Z,50.93
2022-09-02T16:43:16.487Z,50.47
2022-09-02T16:44:51.502Z,50.70
2022-09-02T16:46:23.967Z,51.01
2022-09-02T16:47:56.082Z,50.70
2022-09-02T16:49:28.347Z,50.68
2022-09-02T16:51:04.126Z,51.14
2022-09-02T16:52:36.833Z,51.26
2022-09-02T16:54:09.088Z,51.24
2022-09-02T16:55:49.558Z,51.34
2022-09-02T16:57:21.287Z,51.42
2022-09-02T16:58:53.608Z,51.20
2022-09-02T17:00:25.258Z,51.46
2022-09-02T17:01:57.408Z,51.59
2022-09-02T17:03:29.147Z,51.78
2022-09-02T17:05:01.141Z,51.76
2022-09-02T17:06:33.059Z,51.84
2022-09-02T17:08:05.148Z,52.06
2022-09-02T17:09:36.818Z,52.18
2022-09-02T17:11:11.573Z,52.31
2022-09-02T17:12:43.528Z,52.26
2022-09-02T17:14:16.284Z,52.08
2022-09-02T17:15:48.817Z,52.27
2022-09-02T17:17:20.700Z,52.40
2022-09-02T17:18:52.599Z,52.20
2022-09-02T17:20:25.455Z,52.64
2022-09-02T17:21:57.151Z,52.45
2022-09-02T17:23:29.091Z,52.57
2022-09-02T17:25:00.835Z,52.76
2022-09-02T17:26:34.595Z,52.71
2022-09-02T17:28:06.394Z,52.86
2022-09-02T17:29:55.443Z,53.11
2022-09-02T17:31:31.242Z,53.04
2022-09-02T17:33:02.965Z,53.26
2022-09-02T17:34:34.670Z,53.29
2022-09-02T17:36:06.482Z,53.19
2022-09-02T17:37:38.481Z,53.38
2022-09-02T17:39:11.315Z,53.49
2022-09-02T17:41:01.795Z,53.66
2022-09-02T17:42:34.506Z,53.75
2022-09-02T17:44:06.098Z,53.73
2022-09-02T17:45:37.779Z,53.83
2022-09-02T17:47:09.731Z,53.93
2022-09-02T17:49:05.769Z,54.15
2022-09-02T17:50:33.713Z,54.02
2022-09-02T17:52:07.171Z,54.17
2022-09-02T17:53:40.385Z,54.10
2022-09-02T17:55:12.511Z,54.18
2022-09-02T17:56:50.429Z,54.46
2022-09-02T17:58:22.340Z,54.56
2022-09-02T18:00:07.674Z,54.83
2022-09-02T18:01:51.139Z,54.82
2022-09-02T18:03:35.481Z,54.60
2022-09-02T18:05:16.595Z,54.70
2022-09-02T18:06:51.578Z,54.75
2022-09-02T18:08:34.913Z,54.64
2022-09-02T18:10:06.753Z,54.79
2022-09-02T18:11:38.844Z,54.50
2022-09-02T18:13:13.993Z,54.78
2022-09-02T18:14:47.075Z,54.94
2022-09-02T18:16:32.294Z,54.81
2022-09-02T18:18:04.362Z,55.13
2022-09-02T18:19:48.057Z,54.99
2022-09-02T18:21:21.264Z,54.99
2022-09-02T18:22:58.279Z,54.96
2022-09-02T18:24:56.232Z,54.99
2022-09-02T18:26:46.608Z,54.91
2022-09-02T18:28:33.348Z,55.13
2022-09-02T18:30:09.190Z,55.14
2022-09-02T18:31:56.210Z,55.26
2022-09-02T18:33:33.578Z,55.48
2022-09-02T18:35:24.444Z,55.15
2022-09-02T18:37:14.171Z,54.95
2022-09-02T18:38:48.987Z,55.18
2022-09-02T18:40:33.417Z,55.05
2022-09-02T18:42:23.633Z,54.98
2022-09-02T18:44:11.101Z,54.93
2022-09-02T18:45:50.076Z,55.04
2022-09-02T18:47:23.910Z,54.91
2022-09-02T18:48:56.962Z,54.75
2022-09-02T18:50:51.586Z,54.84
2022-09-02T18:52:26.539Z,54.89
2022-09-02T18:54:00.037Z,55.18
2022-09-02T18:55:35.793Z,55.33
2022-09-02T18:57:07.948Z,55.40
2022-09-02T18:58:40.233Z,55.28
2022-09-02T19:00:12.862Z,55.31
2022-09-02T19:01:44.922Z,55.28
2022-09-02T19:03:17.010Z,55.52
2022-09-02T19:04:48.863Z,55.60
2022-09-02T19:06:24.280Z,55.83
2022-09-02T19:08:21.800Z,55.90
2022-09-02T19:09:55.302Z,55.90
2022-09-02T19:11:27.407Z,56.02
2022-09-02T19:13:00.305Z,56.14
2022-09-02T19:14:32.189Z,56.26
2022-09-02T19:16:05.086Z,56.20
2022-09-02T19:17:38.123Z,56.21
2022-09-02T19:19:10.672Z,56.14
2022-09-02T19:20:42.380Z,56.17
2022-09-02T19:22:13.998Z,56.13
2022-09-02T19:23:46.120Z,56.01
2022-09-02T19:25:18.744Z,56.09
2022-09-02T19:26:51.417Z,56.17
2022-09-02T19:28:23.794Z,56.17
2022-09-02T19:29:57.046Z,56.17
2022-09-02T19:31:29.735Z,56.30
2022-09-02T19:33:01.428Z,56.21
2022-09-02T19:34:34.115Z,56.24
2022-09-02T19:36:05.815Z,56.14
2022-09-02T19:37:44.702Z,56.16
2022-09-02T19:39:16.757Z,56.28
2022-09-02T19:40:49.721Z,56.44
2022-09-02T19:42:24.157Z,56.67
2022-09-02T19:43:56.324Z,56.58
2022-09-02T19:45:29.568Z,56.58
2022-09-02T19:47:49.763Z,56.76
2022-09-02T19:48:54.098Z,56.65
2022-09-02T19:50:26.222Z,56.77
2022-09-02T19:51:57.861Z,57.06
2022-09-02T19:53:32.470Z,57.15
2022-09-02T19:55:04.327Z,57.42
2022-09-02T19:56:36.244Z,57.57
2022-09-02T19:58:07.818Z,57.66
2022-09-02T19:59:39.542Z,57.61
2022-09-02T20:01:11.160Z,57.56
2022-09-02T20:02:43.071Z,57.81
2022-09-02T20:04:16.071Z,57.79
2022-09-02T20:05:52.677Z,57.74
2022-09-02T20:07:25.924Z,57.87
2022-09-02T20:08:57.641Z,57.91
2022-09-02T20:10:30.452Z,58.03
2022-09-02T20:12:02.650Z,58.08
2022-09-02T20:13:38.742Z,58.09
2022-09-02T20:15:12.720Z,57.91
2022-09-02T20:16:47.703Z,58.10
2022-09-02T20:18:21.675Z,58.11
2022-09-02T20:19:55.435Z,58.05
2022-09-02T20:21:27.924Z,58.07
2022-09-02T20:22:59.708Z,58.18
2022-09-02T20:24:34.345Z,58.32
2022-09-02T20:26:06.033Z,58.21
2022-09-02T20:27:56.079Z,58.31
2022-09-02T20:29:33.694Z,58.34
2022-09-02T20:31:09.818Z,58.35
2022-09-02T20:32:41.623Z,58.54
2022-09-02T20:34:32.278Z,58.49
2022-09-02T20:36:08.469Z,58.36
2022-09-02T20:37:58.437Z,58.32
2022-09-02T20:39:43.501Z,58.58
2022-09-02T20:41:28.046Z,58.59
2022-09-02T20:43:09.049Z,58.51
2022-09-02T20:44:50.241Z,58.80
2022-09-02T20:46:35.477Z,58.85
2022-09-02T20:48:16.496Z,58.81
2022-09-02T20:49:54.124Z,58.74
2022-09-02T20:51:45.968Z,58.71
2022-09-02T20:53:28.089Z,58.63
2022-09-02T20:55:18.562Z,58.73
2022-09-02T20:56:59.713Z,58.79
2022-09-02T20:58:43.457Z,58.91
2022-09-02T21:00:15.795Z,58.90
2022-09-02T21:01:47.513Z,58.86
2022-09-02T21:03:19.190Z,58.90
2022-09-02T21:04:53.193Z,59.28
2022-09-02T21:06:26.853Z,59.09
2022-09-02T21:08:02.032Z,59.13
2022-09-02T21:09:39.120Z,59.05
2022-09-02T21:11:14.729Z,59.12
2022-09-02T21:12:48.703Z,58.90
2022-09-02T21:14:33.861Z,59.07
2022-09-02T21:16:07.652Z,59.08
2022-09-02T21:17:48.256Z,59.21
2022-09-02T21:19:38.594Z,59.15
2022-09-02T21:21:22.579Z,59.16
2022-09-02T21:22:55.704Z,59.22